Time;durP1;ratioP1;P1;durP2;ratioP2;P2;SDS_P1;SDS_P2;PMS_P1;PMS_P2;Temp;Humidity;BMP_temperature;BMP_pressure;BME280_temperature;BME280_humidity;BME280_pressure;Samples;Min_cycle;Max_cycle;Signal;HPM_P1;HPM_P2
2021/01/06 00:00:20;;;;;;;19.00;13.27;;;2.50;99.90;;;3.14;100.00;99992.53;4751566;30;20240;-65
2021/01/06 00:02:47;;;;;;;20.83;13.07;;;2.40;99.90;;;3.18;100.00;99999.19;4751445;30;20324;-62
2021/01/06 00:05:19;;;;;;;20.50;13.53;;;2.30;99.90;;;3.50;100.00;99986.44;4751351;30;20306;-62
2021/01/06 00:07:48;;;;;;;21.10;12.70;;;2.40;99.90;;;3.23;100.00;99988.81;4752178;30;20196;-62
2021/01/06 00:10:21;;;;;;;19.40;12.93;;;2.40;99.90;;;3.50;100.00;99981.13;4752025;30;20314;-62
2021/01/06 00:12:49;;;;;;;18.97;12.07;;;2.50;99.90;;;3.21;100.00;99986.34;4752073;30;20283;-63
2021/01/06 00:15:21;;;;;;;17.30;11.93;;;2.40;99.90;;;2.95;100.00;99982.34;4751943;30;20281;-63
2021/01/06 00:17:48;;;;;;;17.27;11.87;;;2.30;99.90;;;2.97;100.00;99990.97;4751188;30;20296;-62
2021/01/06 00:20:17;;;;;;;18.27;11.60;;;2.10;99.90;;;3.13;100.00;99997.03;4751897;30;20217;-63
2021/01/06 00:22:44;;;;;;;16.63;10.67;;;2.20;99.90;;;3.23;100.00;99986.97;4749114;30;20327;-62
2021/01/06 00:25:17;;;;;;;17.13;11.13;;;2.30;99.90;;;3.26;100.00;99993.78;4718707;30;20278;-62
2021/01/06 00:27:45;;;;;;;17.63;10.43;;;2.30;99.90;;;3.26;100.00;99983.16;4722713;30;20292;-62
2021/01/06 00:30:23;;;;;;;17.17;10.43;;;2.30;99.90;;;3.16;100.00;99982.56;4716569;30;20304;-63
2021/01/06 00:32:51;;;;;;;16.03;10.00;;;2.30;99.90;;;3.02;100.00;99970.00;4716352;30;20229;-62
2021/01/06 00:35:19;;;;;;;15.90;10.57;;;2.30;99.90;;;3.02;100.00;99972.66;4718554;30;20720;-62
2021/01/06 00:37:46;;;;;;;17.53;10.77;;;2.20;99.90;;;3.13;100.00;99965.09;4729242;30;20211;-63
2021/01/06 00:40:15;;;;;;;15.17;9.60;;;2.20;99.90;;;3.36;100.00;99965.94;4730909;30;20287;-61
2021/01/06 00:42:42;;;;;;;14.23;9.77;;;2.30;99.90;;;3.22;100.00;99973.84;4724324;30;20265;-62
2021/01/06 00:45:16;;;;;;;13.07;9.30;;;2.30;99.90;;;2.91;100.00;99965.91;4719745;30;20320;-63
2021/01/06 00:47:44;;;;;;;13.77;9.57;;;2.20;99.90;;;2.85;100.00;99965.78;4716008;30;20625;-62
2021/01/06 00:50:13;;;;;;;17.07;9.77;;;2.10;99.90;;;3.10;100.00;99968.13;4716029;30;20756;-62
2021/01/06 00:52:40;;;;;;;15.07;10.30;;;2.20;99.90;;;3.03;100.00;99963.66;4716129;30;20214;-62
2021/01/06 00:55:09;;;;;;;14.90;9.60;;;2.10;99.90;;;3.32;100.00;99963.78;4719222;30;20251;-62
2021/01/06 00:57:36;;;;;;;16.57;10.20;;;2.30;99.90;;;3.05;100.00;99961.66;4724355;30;20247;-62
2021/01/06 01:00:09;;;;;;;16.23;10.57;;;2.20;99.90;;;3.30;100.00;99966.63;4728791;30;20210;-65
2021/01/06 01:02:37;;;;;;;14.73;9.83;;;2.30;99.90;;;3.21;100.00;99966.88;4725232;30;20271;-64
2021/01/06 01:05:07;;;;;;;15.07;10.20;;;2.30;99.90;;;3.25;100.00;99968.16;4716731;30;20300;-64
2021/01/06 01:07:34;;;;;;;14.23;10.07;;;2.30;99.90;;;3.08;100.00;99961.31;4716356;30;20313;-64
2021/01/06 01:10:01;;;;;;;12.87;8.73;;;2.30;99.90;;;3.12;100.00;99957.28;4716190;30;20248;-65
2021/01/06 01:12:28;;;;;;;13.10;9.73;;;2.30;99.90;;;3.19;100.00;99958.25;4720791;30;20241;-64
2021/01/06 01:14:56;;;;;;;16.90;10.10;;;2.30;99.90;;;2.97;100.00;99961.72;4725124;30;20648;-64
2021/01/06 01:17:23;;;;;;;14.60;9.33;;;2.30;99.90;;;3.19;100.00;99952.91;4726403;30;20741;-64
2021/01/06 01:19:51;;;;;;;15.80;9.63;;;2.30;99.90;;;3.24;100.00;99947.88;4733531;30;20209;-63
2021/01/06 01:22:19;;;;;;;15.00;9.70;;;2.30;99.90;;;3.32;100.00;99945.16;4730927;30;20221;-64
2021/01/06 01:24:46;;;;;;;16.03;10.20;;;2.40;99.90;;;2.91;100.00;99954.44;4717780;30;20595;-64
2021/01/06 01:27:13;;;;;;;15.10;9.93;;;2.30;99.90;;;3.15;100.00;99956.94;4743436;30;20248;-64
2021/01/06 01:29:41;;;;;;;15.20;10.07;;;2.30;99.90;;;3.34;100.00;99953.78;4749686;30;20252;-63
2021/01/06 01:32:08;;;;;;;15.57;9.33;;;2.20;99.90;;;3.22;100.00;99955.22;4723459;30;20296;-63
2021/01/06 01:34:35;;;;;;;14.77;9.47;;;2.40;99.90;;;2.99;100.00;99952.56;4725039;30;20236;-64
2021/01/06 01:37:03;;;;;;;15.03;9.70;;;2.30;99.90;;;3.22;100.00;99942.75;4723738;30;20209;-64
2021/01/06 01:39:30;;;;;;;13.97;9.53;;;2.30;99.90;;;3.01;100.00;99945.22;4724104;30;20237;-64
2021/01/06 01:41:58;;;;;;;13.47;9.40;;;2.30;99.90;;;3.15;100.00;99946.28;4724632;30;20797;-64
2021/01/06 01:44:25;;;;;;;13.00;8.57;;;2.40;99.90;;;3.18;100.00;99946.75;4724112;30;20207;-65
2021/01/06 01:47:16;;;;;;;11.37;8.20;;;2.30;99.90;;;2.92;100.00;99946.28;4724118;30;20251;-65
2021/01/06 01:49:48;;;;;;;11.13;8.53;;;2.20;99.90;;;2.97;100.00;99946.59;4719871;30;20336;-63
2021/01/06 01:52:26;;;;;;;12.60;8.30;;;2.20;99.90;;;3.23;100.00;99941.72;4723431;30;20701;-64
2021/01/06 01:54:59;;;;;;;14.37;9.30;;;2.20;99.90;;;3.37;100.00;99945.44;4722922;30;20225;-64
2021/01/06 01:57:33;;;;;;;11.00;8.23;;;2.30;99.90;;;3.19;100.00;99937.78;4716911;30;20295;-64
2021/01/06 02:00:08;;;;;;;10.90;8.33;;;2.30;99.90;;;3.25;100.00;99947.72;4732624;30;20225;-65
2021/01/06 02:02:50;;;;;;;13.10;8.40;;;2.30;99.90;;;3.21;100.00;99946.44;4732776;30;20304;-63
2021/01/06 02:05:24;;;;;;;13.60;9.63;;;2.30;99.90;;;3.41;100.00;99936.13;4733131;30;20640;-64
2021/01/06 02:07:59;;;;;;;12.83;9.00;;;2.30;99.90;;;3.48;100.00;99937.84;4733305;30;20254;-64
2021/01/06 02:10:33;;;;;;;13.47;9.80;;;2.40;99.90;;;3.60;100.00;99941.75;4732888;30;20201;-64
2021/01/06 02:13:09;;;;;;;14.30;8.67;;;2.50;99.90;;;3.59;100.00;99937.44;4732961;30;20233;-64
2021/01/06 02:15:45;;;;;;;12.83;8.80;;;2.50;99.90;;;3.63;100.00;99936.09;4732943;30;20194;-64
2021/01/06 02:18:15;;;;;;;11.67;9.03;;;2.60;99.90;;;3.68;100.00;99933.72;4733021;30;20198;-64
2021/01/06 02:21:15;;;;;;;12.23;9.00;;;2.60;99.90;;;3.70;100.00;99929.00;4733059;30;20262;-64
2021/01/06 02:23:48;;;;;;;13.30;8.97;;;2.70;99.90;;;3.70;100.00;99944.97;4733080;30;20249;-64
2021/01/06 02:26:15;;;;;;;13.53;9.67;;;2.60;99.90;;;3.78;100.00;99933.44;4739292;30;20715;-63
2021/01/06 02:28:43;;;;;;;12.00;8.43;;;2.80;99.90;;;3.54;100.00;99931.00;4752003;30;20214;-65
2021/01/06 02:31:10;;;;;;;11.20;8.43;;;2.70;99.90;;;3.50;100.00;99935.03;4753181;30;20297;-64
2021/01/06 02:33:39;;;;;;;13.57;8.60;;;2.60;99.90;;;3.57;100.00;99930.63;4753245;30;20313;-62
2021/01/06 02:36:07;;;;;;;15.23;9.17;;;2.60;99.90;;;3.68;100.00;99933.72;4753674;30;20221;-63
2021/01/06 02:38:34;;;;;;;10.83;7.73;;;2.60;99.90;;;3.84;100.00;99931.88;4753389;30;20767;-64
2021/01/06 02:41:04;;;;;;;13.13;8.20;;;2.70;99.90;;;3.61;100.00;99934.59;4753429;30;20291;-64
2021/01/06 02:43:32;;;;;;;11.90;7.60;;;2.70;99.90;;;3.59;100.00;99926.78;4753405;30;20585;-65
2021/01/06 02:46:00;;;;;;;12.67;8.70;;;2.70;99.90;;;3.64;100.00;99926.25;4753444;30;20312;-64
2021/01/06 02:48:28;;;;;;;13.00;8.77;;;2.60;99.90;;;3.58;100.00;99927.81;4753027;30;20259;-64
2021/01/06 02:51:02;;;;;;;12.57;8.40;;;2.70;99.90;;;3.68;100.00;99923.06;4752982;30;20295;-63
2021/01/06 02:53:40;;;;;;;11.93;8.43;;;2.70;99.90;;;3.74;100.00;99922.31;4753031;30;20198;-64
2021/01/06 02:56:08;;;;;;;13.87;8.97;;;2.70;99.90;;;3.91;100.00;99932.81;4753181;30;20326;-63
2021/01/06 02:58:37;;;;;;;11.03;8.00;;;2.70;99.90;;;3.61;100.00;99918.63;4752955;30;20294;-64
2021/01/06 03:01:10;;;;;;;11.57;8.67;;;2.70;99.90;;;3.78;100.00;99920.13;4753018;30;20295;-63
2021/01/06 03:03:40;;;;;;;12.17;8.10;;;2.70;99.90;;;3.65;100.00;99915.41;4752976;30;20252;-63
2021/01/06 03:06:14;;;;;;;10.50;8.30;;;2.70;99.90;;;3.51;100.00;99918.06;4753294;30;20278;-64
2021/01/06 03:08:41;;;;;;;12.00;8.23;;;2.70;99.90;;;3.46;100.00;99912.44;4753161;30;20299;-64
2021/01/06 03:11:10;;;;;;;12.53;8.80;;;2.70;99.90;;;3.33;100.00;99913.03;4752956;30;20308;-63
2021/01/06 03:13:38;;;;;;;11.00;8.20;;;2.60;99.90;;;3.50;100.00;99913.75;4753041;30;20230;-63
2021/01/06 03:16:07;;;;;;;12.53;8.73;;;2.60;99.90;;;3.70;100.00;99915.69;4752660;30;20294;-64
2021/01/06 03:18:35;;;;;;;11.23;8.23;;;2.60;99.90;;;3.73;100.00;99910.03;4752452;30;20255;-63
2021/01/06 03:21:07;;;;;;;13.07;8.63;;;2.70;99.90;;;3.71;100.00;99911.19;4752975;30;20337;-64
2021/01/06 03:23:42;;;;;;;13.27;8.23;;;2.70;99.90;;;3.74;100.00;99901.00;4752800;30;20324;-63
2021/01/06 03:26:17;;;;;;;10.83;8.10;;;2.70;99.90;;;3.66;100.00;99902.91;4752700;30;20294;-63
2021/01/06 03:28:48;;;;;;;12.23;7.63;;;2.70;99.90;;;3.74;100.00;99897.50;4752783;30;20229;-64
2021/01/06 03:31:24;;;;;;;11.57;8.17;;;2.80;99.90;;;3.94;100.00;99895.94;4752444;30;20231;-64
2021/01/06 03:34:01;;;;;;;15.07;9.33;;;2.80;99.90;;;3.97;100.00;99894.78;4752618;30;20580;-63
2021/01/06 03:36:38;;;;;;;13.13;8.67;;;2.90;99.90;;;3.70;100.00;99897.03;4752751;30;20283;-64
2021/01/06 03:39:14;;;;;;;16.77;10.43;;;2.90;99.90;;;3.65;100.00;99886.09;4752370;30;20300;-64
2021/01/06 03:41:43;;;;;;;14.50;9.60;;;2.80;99.90;;;3.57;100.00;99890.69;4752419;30;20200;-63
2021/01/06 03:44:13;;;;;;;14.30;10.07;;;2.80;99.90;;;3.74;100.00;99879.69;4752184;30;20339;-64
2021/01/06 03:46:48;;;;;;;14.47;9.00;;;2.80;99.90;;;3.73;100.00;99875.41;4752487;30;20639;-63
2021/01/06 03:49:43;;;;;;;14.97;9.37;;;2.80;99.90;;;3.81;100.00;99873.63;4752033;30;20279;-63
2021/01/06 03:52:24;;;;;;;14.27;8.67;;;2.80;99.90;;;4.00;100.00;99870.41;4752099;30;20284;-63
2021/01/06 03:55:03;;;;;;;15.23;8.60;;;2.90;99.90;;;3.68;100.00;99874.28;4752223;30;20198;-64
2021/01/06 03:57:32;;;;;;;11.63;7.80;;;2.90;99.90;;;3.83;100.00;99871.59;4752215;30;20253;-63
2021/01/06 04:00:02;;;;;;;16.27;8.47;;;2.90;99.90;;;4.01;100.00;99866.75;4752070;30;20242;-63
2021/01/06 04:02:41;;;;;;;13.47;8.00;;;2.90;99.90;;;3.79;100.00;99852.50;4751832;30;20248;-64
2021/01/06 04:05:15;;;;;;;14.57;8.37;;;2.90;99.90;;;4.03;100.00;99854.06;4751900;30;20721;-64
2021/01/06 04:07:48;;;;;;;11.40;7.97;;;2.90;99.90;;;3.88;100.00;99846.09;4752224;30;20248;-64
2021/01/06 04:10:24;;;;;;;15.47;8.53;;;3.00;99.90;;;3.82;100.00;99851.31;4751624;30;20192;-63
2021/01/06 04:12:52;;;;;;;14.50;8.97;;;2.90;99.90;;;3.89;100.00;99850.38;4752084;30;20188;-64
2021/01/06 04:15:20;;;;;;;13.13;8.00;;;2.90;99.90;;;3.69;100.00;99854.63;4751779;30;20212;-64
2021/01/06 04:17:49;;;;;;;15.90;9.33;;;2.90;99.90;;;3.87;100.00;99839.13;4751496;30;20733;-64
2021/01/06 04:20:31;;;;;;;13.23;9.00;;;2.90;99.90;;;3.65;100.00;99846.16;4751912;30;20249;-64
2021/01/06 04:23:01;;;;;;;13.13;8.40;;;2.90;99.90;;;3.69;100.00;99850.13;4751601;30;20313;-64
2021/01/06 04:25:31;;;;;;;13.87;9.20;;;2.80;99.90;;;3.99;100.00;99834.94;4751756;30;20280;-62
2021/01/06 04:28:04;;;;;;;13.83;9.07;;;2.90;99.90;;;3.96;100.00;99837.19;4751458;30;20248;-63
2021/01/06 04:30:37;;;;;;;13.90;8.90;;;3.00;99.90;;;3.71;100.00;99839.28;4751527;30;20232;-63
2021/01/06 04:33:08;;;;;;;13.13;8.53;;;2.90;99.90;;;3.73;100.00;99830.13;4751658;30;20201;-62
2021/01/06 04:35:36;;;;;;;13.27;8.30;;;2.90;99.90;;;3.72;100.00;99833.78;4751668;30;20228;-64
2021/01/06 04:38:04;;;;;;;15.73;9.03;;;2.80;99.90;;;3.93;100.00;99834.84;4751293;30;20755;-64
2021/01/06 04:40:37;;;;;;;12.67;8.30;;;2.90;99.90;;;4.02;100.00;99831.94;4751149;30;20220;-64
2021/01/06 04:43:17;;;;;;;12.77;8.93;;;3.00;99.90;;;3.76;100.00;99823.56;4751591;30;20704;-64
2021/01/06 04:46:09;;;;;;;14.77;9.90;;;2.90;99.90;;;3.98;100.00;99830.63;4751155;30;20203;-64
2021/01/06 04:48:54;;;;;;;14.03;9.10;;;2.90;99.90;;;3.87;100.00;99833.78;4751028;30;20291;-63
2021/01/06 04:51:39;;;;;;;14.03;10.03;;;2.90;99.90;;;3.84;100.00;99830.66;4750979;30;20289;-63
2021/01/06 04:54:28;;;;;;;15.00;8.53;;;2.90;99.90;;;4.09;100.00;99835.50;4753452;30;20296;-62
2021/01/06 04:57:13;;;;;;;11.80;8.70;;;3.00;99.90;;;3.82;100.00;99838.84;4754757;30;20632;-62
2021/01/06 05:00:14;;;;;;;13.37;9.37;;;2.90;99.90;;;3.82;100.00;99828.19;4751664;30;20225;-61
2021/01/06 05:03:09;;;;;;;11.93;8.73;;;3.00;99.90;;;3.97;100.00;99826.34;4751261;30;20216;-61
2021/01/06 05:05:57;;;;;;;11.53;8.77;;;3.00;99.90;;;3.86;100.00;99823.31;4750947;30;20306;-63
2021/01/06 05:08:35;;;;;;;11.33;7.50;;;3.00;99.90;;;3.92;100.00;99836.72;4751302;30;20230;-62
2021/01/06 05:11:09;;;;;;;9.50;6.90;;;3.00;99.90;;;4.06;100.00;99829.72;4751096;30;20233;-62
2021/01/06 05:13:46;;;;;;;11.43;7.83;;;3.10;99.90;;;3.72;100.00;99823.13;4750540;30;20613;-60
2021/01/06 05:16:22;;;;;;;11.23;8.00;;;3.00;99.90;;;3.56;100.00;99818.00;4751229;30;20220;-62
2021/01/06 05:18:49;;;;;;;10.30;7.27;;;2.90;99.90;;;3.77;100.00;99824.41;4750895;30;20236;-61
2021/01/06 05:21:20;;;;;;;10.20;7.63;;;2.90;99.90;;;3.48;100.00;99822.56;4750886;30;20700;-62
2021/01/06 05:23:55;;;;;;;10.80;8.13;;;2.80;99.90;;;3.98;100.00;99817.31;4751158;30;20247;-61
2021/01/06 05:26:23;;;;;;;10.90;7.07;;;3.00;99.90;;;4.02;100.00;99809.78;4750653;30;20301;-61
2021/01/06 05:28:51;;;;;;;11.40;7.83;;;3.00;99.90;;;4.17;100.00;99811.41;4750664;30;20218;-61
2021/01/06 05:31:20;;;;;;;10.03;6.53;;;3.10;99.90;;;3.99;100.00;99813.63;4751032;30;20214;-61
2021/01/06 05:33:52;;;;;;;9.47;7.23;;;3.10;99.90;;;3.83;100.00;99811.19;4750775;30;20315;-61
2021/01/06 05:36:26;;;;;;;10.00;7.27;;;3.00;99.90;;;3.65;100.00;99811.53;4750931;30;20202;-61
2021/01/06 05:38:54;;;;;;;10.40;7.40;;;3.00;99.90;;;3.97;100.00;99805.00;4750706;30;20669;-61
2021/01/06 05:41:21;;;;;;;11.10;6.63;;;3.00;99.90;;;4.00;100.00;99815.28;4750474;30;20275;-61
2021/01/06 05:43:53;;;;;;;7.40;6.43;;;3.00;99.90;;;3.87;100.00;99811.63;4750575;30;20335;-61
2021/01/06 05:46:31;;;;;;;9.00;6.23;;;3.00;99.90;;;3.63;100.00;99815.41;4750920;30;20230;-61
2021/01/06 05:49:21;;;;;;;8.13;6.30;;;2.90;99.90;;;3.66;100.00;99807.06;4750585;30;20335;-61
2021/01/06 05:51:56;;;;;;;9.53;6.73;;;2.90;99.90;;;4.01;100.00;99810.81;4750945;30;20218;-62
2021/01/06 05:54:43;;;;;;;7.60;5.20;;;2.90;99.90;;;3.84;100.00;99804.03;4750911;30;20221;-61
2021/01/06 05:57:23;;;;;;;9.60;6.80;;;2.90;99.90;;;3.78;100.00;99807.41;4750797;30;20226;-61
2021/01/06 06:00:32;;;;;;;8.53;6.17;;;3.00;99.90;;;3.71;100.00;99802.84;4750512;30;20272;-62
2021/01/06 06:04:02;;;;;;;8.13;5.93;;;2.90;99.90;;;3.69;100.00;99799.53;4679136;30;20319;-61
2021/01/06 06:06:53;;;;;;;8.77;5.83;;;2.90;99.90;;;3.80;100.00;99806.22;4741373;30;20217;-62
2021/01/06 06:10:02;;;;;;;8.27;5.97;;;2.90;99.90;;;3.82;100.00;99800.72;4754226;30;20254;-61
2021/01/06 06:12:55;;;;;;;8.97;5.67;;;2.90;99.90;;;3.66;100.00;99791.06;4740577;30;20214;-62
2021/01/06 06:15:43;;;;;;;7.13;5.43;;;3.00;99.90;;;3.69;100.00;99794.19;4744691;30;20295;-61
2021/01/06 06:18:34;;;;;;;7.30;5.53;;;2.90;99.90;;;3.87;100.00;99793.00;4753608;30;20347;-61
2021/01/06 06:21:20;;;;;;;7.67;5.77;;;3.00;99.90;;;3.85;100.00;99801.16;4753856;30;20204;-62
2021/01/06 06:24:03;;;;;;;8.00;6.30;;;3.00;99.90;;;3.76;100.00;99796.94;4753890;30;20578;-62
2021/01/06 06:26:51;;;;;;;7.83;5.27;;;3.00;99.90;;;3.93;100.00;99801.06;4753671;30;20295;-62
2021/01/06 06:29:28;;;;;;;7.97;5.20;;;3.00;99.90;;;3.83;100.00;99792.53;4753613;30;20733;-61
2021/01/06 06:31:59;;;;;;;7.80;5.67;;;3.00;99.90;;;3.88;100.00;99792.81;4753495;30;20204;-62
2021/01/06 06:34:31;;;;;;;7.20;5.43;;;3.00;99.90;;;4.03;100.00;99790.09;4753539;30;20222;-62
2021/01/06 06:37:10;;;;;;;7.17;5.00;;;3.10;99.90;;;3.86;100.00;99797.47;4753694;30;20206;-61
2021/01/06 06:39:43;;;;;;;6.87;4.87;;;3.10;99.90;;;3.81;100.00;99799.03;4753355;30;20246;-62
2021/01/06 06:42:26;;;;;;;6.93;4.90;;;3.00;99.90;;;4.01;100.00;99798.28;4753915;30;20240;-62
2021/01/06 06:44:58;;;;;;;7.00;4.77;;;3.00;99.90;;;3.98;100.00;99803.16;4753769;30;20278;-61
2021/01/06 06:47:54;;;;;;;7.67;5.00;;;3.00;99.90;;;3.97;100.00;99796.19;4753220;30;20635;-61
2021/01/06 06:50:49;;;;;;;5.63;4.47;;;3.00;99.90;;;4.15;100.00;99801.94;4753338;30;20276;-62
2021/01/06 06:53:32;;;;;;;7.20;4.07;;;3.10;99.90;;;3.82;100.00;99798.88;4752961;30;20256;-61
2021/01/06 06:56:15;;;;;;;4.13;3.43;;;3.10;99.90;;;3.52;100.00;99795.38;4752874;30;20232;-62
2021/01/06 06:58:51;;;;;;;4.07;3.17;;;2.90;99.90;;;3.99;100.00;99796.84;4753074;30;20194;-61
2021/01/06 07:01:26;;;;;;;5.00;3.10;;;2.90;99.90;;;4.02;100.00;99805.28;4753165;30;20750;-61
2021/01/06 07:04:01;;;;;;;5.20;2.90;;;3.00;99.90;;;4.05;100.00;99812.06;4753371;30;20319;-61
2021/01/06 07:06:31;;;;;;;3.40;2.60;;;3.10;99.90;;;4.03;100.00;99809.59;4739499;30;20216;-61
2021/01/06 07:09:03;;;;;;;3.87;2.70;;;3.10;99.90;;;3.91;100.00;99813.72;4735173;30;20276;-61
2021/01/06 07:11:39;;;;;;;3.00;2.50;;;3.10;99.90;;;3.99;100.00;99810.97;4735308;30;20260;-61
2021/01/06 07:14:20;;;;;;;3.00;2.67;;;3.10;99.90;;;4.06;100.00;99817.19;4729406;30;20875;-61
2021/01/06 07:17:06;;;;;;;2.73;2.27;;;3.20;99.90;;;4.01;100.00;99814.28;4735377;30;20244;-60
2021/01/06 07:19:38;;;;;;;2.67;2.27;;;3.10;99.90;;;4.01;100.00;99816.94;4735555;30;20300;-62
2021/01/06 07:22:21;;;;;;;2.80;2.23;;;3.10;99.90;;;3.86;100.00;99824.13;4734689;30;20744;-61
2021/01/06 07:24:56;;;;;;;4.03;2.47;;;3.00;99.90;;;4.10;100.00;99825.66;4734972;30;20301;-60
2021/01/06 07:27:30;;;;;;;3.23;2.30;;;3.10;99.90;;;3.96;100.00;99822.00;4749697;30;20722;-60
2021/01/06 07:29:57;;;;;;;2.30;1.87;;;3.10;99.90;;;3.93;100.00;99832.19;4752343;30;20290;-61
2021/01/06 07:32:37;;;;;;;3.33;2.30;;;3.10;99.90;;;4.14;100.00;99833.13;4752820;30;20303;-61
2021/01/06 07:35:12;;;;;;;2.07;1.80;;;3.20;99.90;;;4.15;100.00;99829.41;4752736;30;21118;-62
2021/01/06 07:37:46;;;;;;;2.00;1.80;;;3.20;99.90;;;4.12;100.00;99839.63;4752854;30;20630;-61
2021/01/06 07:40:25;;;;;;;2.10;1.77;;;3.20;99.90;;;4.07;100.00;99842.03;4753096;30;20222;-61
2021/01/06 07:42:55;;;;;;;2.73;2.33;;;3.20;99.90;;;3.93;100.00;99838.38;4752179;30;20261;-60
2021/01/06 07:45:34;;;;;;;2.87;2.00;;;3.10;99.90;;;3.69;100.00;99831.47;4752172;30;20244;-61
2021/01/06 07:48:39;;;;;;;3.33;2.47;;;3.00;99.90;;;4.14;100.00;99837.59;4752289;30;20251;-61
2021/01/06 07:51:25;;;;;;;2.20;2.00;;;3.00;99.90;;;4.03;100.00;99836.22;4748080;30;20273;-63
2021/01/06 07:54:04;;;;;;;2.20;1.90;;;3.10;99.90;;;3.83;100.00;99839.66;4734977;30;20286;-66
2021/01/06 07:56:45;;;;;;;3.20;2.17;;;3.10;99.90;;;4.01;100.00;99834.78;4748722;30;20288;-65
2021/01/06 07:59:27;;;;;;;2.37;1.90;;;3.10;99.90;;;4.22;100.00;99837.50;4748790;30;20198;-66
2021/01/06 08:02:10;;;;;;;2.53;1.70;;;3.10;99.90;;;4.22;100.00;99834.81;4748964;30;20257;-67
2021/01/06 08:04:46;;;;;;;2.40;2.20;;;3.20;99.90;;;4.19;100.00;99848.53;4748268;30;20242;-62
2021/01/06 08:07:21;;;;;;;3.07;2.23;;;3.30;99.90;;;3.91;100.00;99836.91;4748887;30;20276;-61
2021/01/06 08:09:51;;;;;;;2.70;1.93;;;3.20;99.90;;;3.96;100.00;99843.31;4748823;30;20300;-61
2021/01/06 08:12:27;;;;;;;2.43;2.07;;;3.10;99.90;;;4.11;100.00;99848.66;4748606;30;20213;-62
2021/01/06 08:15:19;;;;;;;2.00;1.80;;;3.20;99.90;;;4.05;100.00;99836.03;4748870;30;20227;-60
2021/01/06 08:17:57;;;;;;;2.27;1.90;;;3.10;99.90;;;4.27;100.00;99843.09;4748709;30;20197;-61
2021/01/06 08:20:30;;;;;;;3.40;1.70;;;3.20;99.90;;;4.14;100.00;99837.59;4748098;30;20193;-62
2021/01/06 08:23:20;;;;;;;2.60;2.10;;;3.20;99.90;;;4.34;100.00;99842.16;4748367;30;20355;-61
2021/01/06 08:25:59;;;;;;;2.80;1.67;;;3.20;99.90;;;4.18;100.00;99842.38;4747497;30;20743;-63
2021/01/06 08:28:31;;;;;;;3.70;1.90;;;3.20;99.90;;;4.13;100.00;99843.94;4747788;30;20277;-64
2021/01/06 08:31:09;;;;;;;2.17;1.97;;;3.20;99.90;;;4.29;100.00;99847.22;4748246;30;20577;-65
2021/01/06 08:33:48;;;;;;;2.40;2.07;;;3.30;99.90;;;4.42;100.00;99844.72;4747825;30;20235;-65
2021/01/06 08:36:24;;;;;;;2.40;2.20;;;3.40;99.90;;;4.00;100.00;99849.09;4748069;30;20235;-65
2021/01/06 08:39:14;;;;;;;3.47;2.17;;;3.30;99.90;;;3.86;100.00;99848.09;4747863;30;20252;-64
2021/01/06 08:41:43;;;;;;;2.87;2.13;;;3.20;99.90;;;4.34;100.00;99841.31;4748103;30;20283;-66
2021/01/06 08:44:36;;;;;;;2.30;2.03;;;3.20;99.90;;;4.07;100.00;99842.84;4747766;30;20774;-64
2021/01/06 08:47:08;;;;;;;3.57;2.13;;;3.20;99.90;;;4.47;100.00;99849.47;4747834;30;20213;-65
2021/01/06 08:49:39;;;;;;;2.30;2.10;;;3.30;99.90;;;4.11;100.00;99843.31;4746972;30;20763;-64
2021/01/06 08:52:33;;;;;;;2.80;2.30;;;3.20;99.90;;;4.03;100.00;99846.06;4747671;30;20222;-64
2021/01/06 08:55:06;;;;;;;2.83;2.53;;;3.20;99.90;;;4.24;100.00;99846.13;4706059;30;20250;-62
2021/01/06 08:57:38;;;;;;;2.67;2.30;;;3.30;99.90;;;4.20;100.00;99847.50;4747566;30;20328;-62
2021/01/06 09:00:22;;;;;;;3.10;2.20;;;3.20;99.90;;;4.25;100.00;99839.78;4748062;30;20234;-60
2021/01/06 09:02:54;;;;;;;3.53;2.90;;;3.20;99.90;;;4.17;100.00;99847.88;4748117;30;20240;-61
2021/01/06 09:05:51;;;;;;;3.07;2.73;;;3.20;99.90;;;4.48;100.00;99841.28;4747378;30;20254;-62
2021/01/06 09:08:24;;;;;;;3.50;3.13;;;3.40;99.90;;;4.50;100.00;99843.78;4747982;30;20200;-61
2021/01/06 09:11:23;;;;;;;3.40;3.10;;;3.40;99.90;;;4.12;100.00;99834.28;4749641;30;20547;-61
2021/01/06 09:14:01;;;;;;;2.90;2.60;;;3.30;99.90;;;4.46;100.00;99840.66;4749534;30;20226;-62
2021/01/06 09:16:46;;;;;;;3.20;2.90;;;3.40;99.90;;;4.59;100.00;99826.63;4747778;30;20226;-64
2021/01/06 09:19:26;;;;;;;3.13;2.83;;;3.40;99.90;;;4.44;100.00;99841.84;4747026;30;20283;-68
2021/01/06 09:21:56;;;;;;;3.03;2.73;;;3.40;99.90;;;4.58;100.00;99841.78;4748052;30;20350;-74
2021/01/06 09:24:30;;;;;;;3.57;2.90;;;3.50;99.90;;;4.39;100.00;99836.25;4747834;30;20307;-63
2021/01/06 09:27:04;;;;;;;3.97;3.30;;;3.50;99.90;;;4.50;100.00;99828.59;4747523;30;20264;-64
2021/01/06 09:29:38;;;;;;;3.60;2.83;;;3.50;99.90;;;4.53;99.49;99830.88;4747580;30;20203;-66
2021/01/06 09:32:17;;;;;;;3.67;3.07;;;3.50;99.90;;;4.50;99.76;99833.91;4747441;30;20261;-65
2021/01/06 09:34:57;;;;;;;3.40;2.90;;;3.50;99.90;;;4.22;100.00;99834.81;4746730;30;20195;-66
2021/01/06 09:37:29;;;;;;;3.37;2.53;;;3.40;99.90;;;4.56;99.17;99832.34;4748677;30;20619;-61
2021/01/06 09:40:19;;;;;;;2.87;2.23;;;3.50;99.90;;;4.48;100.00;99838.63;4750796;30;20282;-61
2021/01/06 09:42:54;;;;;;;3.00;2.30;;;3.50;99.90;;;4.38;100.00;99840.75;4751372;30;20201;-61
2021/01/06 09:45:25;;;;;;;2.90;2.20;;;3.50;99.90;;;4.43;100.00;99830.34;4750817;30;20644;-61
2021/01/06 09:47:59;;;;;;;3.00;2.40;;;3.40;99.90;;;4.63;100.00;99828.72;4751451;30;20203;-67
2021/01/06 09:50:33;;;;;;;2.73;2.10;;;3.60;99.90;;;4.23;100.00;99836.50;4750418;30;20330;-67
2021/01/06 09:53:08;;;;;;;3.13;2.40;;;3.40;99.90;;;4.25;99.74;99837.94;4751015;30;20233;-69
2021/01/06 09:55:44;;;;;;;3.53;2.30;;;3.40;99.90;;;4.56;99.51;99843.03;4750850;30;20236;-69
2021/01/06 09:58:24;;;;;;;3.10;1.80;;;3.50;99.90;;;4.52;99.43;99842.56;4750522;30;20239;-70
2021/01/06 10:01:03;;;;;;;2.37;2.10;;;3.60;99.90;;;4.56;98.82;99835.00;4750580;30;20611;-69
2021/01/06 10:03:36;;;;;;;2.07;1.87;;;3.60;99.90;;;4.39;98.36;99837.09;4750119;30;20605;-65
2021/01/06 10:06:24;;;;;;;2.40;1.83;;;3.60;99.90;;;4.61;99.24;99838.78;4750702;30;20254;-67
2021/01/06 10:09:03;;;;;;;2.03;1.70;;;3.50;99.90;;;4.44;99.42;99828.53;4750701;30;20230;-60
2021/01/06 10:11:56;;;;;;;3.00;2.07;;;3.60;99.90;;;4.91;98.37;99826.13;4750597;30;20253;-62
2021/01/06 10:15:07;;;;;;;2.30;1.63;;;3.70;99.90;;;5.10;95.98;99822.81;4750286;30;20287;-61
2021/01/06 10:17:43;;;;;;;2.00;1.43;;;3.90;99.90;;;5.06;95.09;99812.72;4719224;30;20248;-62
2021/01/06 10:20:28;;;;;;;2.13;1.80;;;4.00;99.90;;;5.01;96.79;99818.63;4750017;30;20231;-68
2021/01/06 10:23:10;;;;;;;2.00;1.80;;;4.10;99.90;;;5.10;96.19;99814.81;4750470;30;20231;-66
2021/01/06 10:25:44;;;;;;;2.37;1.67;;;4.10;99.90;;;5.25;96.67;99807.53;4750307;30;20603;-67
2021/01/06 10:28:33;;;;;;;3.53;2.00;;;4.10;99.90;;;5.14;95.94;99807.25;4750383;30;20210;-66
2021/01/06 10:31:07;;;;;;;1.90;1.70;;;4.10;99.90;;;5.11;96.21;99803.09;4750400;30;20231;-72
2021/01/06 10:33:56;;;;;;;3.17;2.00;;;4.10;99.90;;;5.20;96.08;99806.44;4749869;30;20292;-68
2021/01/06 10:37:06;;;;;;;2.03;1.77;;;4.20;99.90;;;5.39;95.49;99803.09;4749417;30;20250;-63
2021/01/06 10:39:40;;;;;;;3.20;2.10;;;4.20;99.90;;;5.40;95.93;99805.56;4749791;30;20204;-65
2021/01/06 10:42:32;;;;;;;2.77;2.10;;;4.30;99.90;;;5.45;96.75;99803.16;4749912;30;20223;-64
2021/01/06 10:45:12;;;;;;;2.77;2.30;;;4.30;99.90;;;5.55;96.82;99802.78;4750188;30;20316;-65
2021/01/06 10:47:48;;;;;;;2.20;2.00;;;4.40;99.90;;;5.29;95.91;99800.78;4749854;30;20265;-66
2021/01/06 10:50:45;;;;;;;4.40;3.90;;;4.30;99.90;;;5.38;94.55;99799.59;4748718;30;20763;-65
2021/01/06 10:53:30;;;;;;;1.60;1.50;;;4.30;99.90;;;5.36;93.26;99806.97;4750008;30;20196;-69
2021/01/06 10:56:07;;;;;;;1.50;1.40;;;4.40;99.90;;;5.20;93.22;99804.63;4749882;30;20708;-68
2021/01/06 10:58:45;;;;;;;1.40;1.30;;;4.30;99.90;;;5.37;91.46;99799.81;4749610;30;20296;-66
2021/01/06 11:02:05;;;;;;;1.27;1.17;;;4.30;99.90;;;5.23;90.57;99792.69;4749386;30;20292;-67